sensor_id;sensor_type;location;lat;lon;timestamp;P1;durP1;ratioP1;P2;durP2;ratioP2
26824;SDS011;14402;48.178;11.566;2023-07-31T00:00:02;2.4;;;1.1;;
26824;SDS011;14402;48.178;11.566;2023-07-31T00:00:32;2.0;;;1.0;;
26824;SDS011;14402;48.178;11.566;2023-07-31T00:01:02;2.0;;;1.0;;
26824;SDS011;14402;48.178;11.566;2023-07-31T00:01:32;2.0;;;1.0;;
26824;SDS011;14402;48.178;11.566;2023-07-31T00:02:02;2.3;;;1.0;;
26824;SDS011;14402;48.178;11.566;2023-07-31T00:02:32;2.6;;;1.0;;
26824;SDS011;14402;48.178;11.566;2023-07-31T00:03:02;2.6;;;1.0;;
26824;SDS011;14402;48.178;11.566;2023-07-31T00:03:32;2.6;;;1.0;;
26824;SDS011;14402;48.178;11.566;2023-07-31T00:04:02;2.2;;;1.0;;
26824;SDS011;14402;48.178;11.566;2023-07-31T00:04:32;1.8;;;1.0;;
26824;SDS011;14402;48.178;11.566;2023-07-31T00:05:02;1.8;;;1.0;;
26824;SDS011;14402;48.178;11.566;2023-07-31T00:05:32;1.8;;;1.0;;
26824;SDS011;14402;48.178;11.566;2023-07-31T00:06:02;1.8;;;1.0;;
26824;SDS011;14402;48.178;11.566;2023-07-31T00:06:33;1.9;;;1.0;;
26824;SDS011;14402;48.178;11.566;2023-07-31T00:07:03;1.9;;;1.0;;
26824;SDS011;14402;48.178;11.566;2023-07-31T00:07:33;1.9;;;1.0;;
26824;SDS011;14402;48.178;11.566;2023-07-31T00:08:03;2.3;;;1.1;;
26824;SDS011;14402;48.178;11.566;2023-07-31T00:08:33;2.8;;;1.2;;
26824;SDS011;14402;48.178;11.566;2023-07-31T00:09:03;2.8;;;1.2;;
26824;SDS011;14402;48.178;11.566;2023-07-31T00:09:33;2.8;;;1.2;;
26824;SDS011;14402;48.178;11.566;2023-07-31T00:10:03;2.5;;;1.2;;
26824;SDS011;14402;48.178;11.566;2023-07-31T00:10:33;2.3;;;1.3;;
26824;SDS011;14402;48.178;11.566;2023-07-31T00:11:03;2.3;;;1.3;;
26824;SDS011;14402;48.178;11.566;2023-07-31T00:11:33;2.3;;;1.3;;
26824;SDS011;14402;48.178;11.566;2023-07-31T00:12:04;2.5;;;1.2;;
26824;SDS011;14402;48.178;11.566;2023-07-31T00:12:33;2.7;;;1.2;;
26824;SDS011;14402;48.178;11.566;2023-07-31T00:13:03;2.7;;;1.2;;
26824;SDS011;14402;48.178;11.566;2023-07-31T00:13:34;2.7;;;1.2;;
26824;SDS011;14402;48.178;11.566;2023-07-31T00:14:04;2.5;;;1.1;;
26824;SDS011;14402;48.178;11.566;2023-07-31T00:14:34;2.2;;;1.0;;
26824;SDS011;14402;48.178;11.566;2023-07-31T00:15:04;2.2;;;1.0;;
26824;SDS011;14402;48.178;11.566;2023-07-31T00:15:34;2.2;;;1.0;;
26824;SDS011;14402;48.178;11.566;2023-07-31T00:16:04;2.4;;;1.1;;
26824;SDS011;14402;48.178;11.566;2023-07-31T00:16:34;2.6;;;1.2;;
26824;SDS011;14402;48.178;11.566;2023-07-31T00:17:36;2.6;;;1.2;;
26824;SDS011;14402;48.178;11.566;2023-07-31T00:18:04;2.4;;;1.2;;
26824;SDS011;14402;48.178;11.566;2023-07-31T00:18:34;2.2;;;1.3;;
26824;SDS011;14402;48.178;11.566;2023-07-31T00:19:04;2.2;;;1.3;;
26824;SDS011;14402;48.178;11.566;2023-07-31T00:19:34;2.2;;;1.3;;
26824;SDS011;14402;48.178;11.566;2023-07-31T00:20:05;2.2;;;1.2;;
26824;SDS011;14402;48.178;11.566;2023-07-31T00:20:35;2.1;;;1.1;;
26824;SDS011;14402;48.178;11.566;2023-07-31T00:21:05;2.1;;;1.1;;
26824;SDS011;14402;48.178;11.566;2023-07-31T00:21:35;2.1;;;1.1;;
26824;SDS011;14402;48.178;11.566;2023-07-31T00:22:05;2.6;;;1.2;;
26824;SDS011;14402;48.178;11.566;2023-07-31T00:22:35;3.1;;;1.2;;
26824;SDS011;14402;48.178;11.566;2023-07-31T00:23:05;3.1;;;1.2;;
26824;SDS011;14402;48.178;11.566;2023-07-31T00:23:35;3.1;;;1.2;;
26824;SDS011;14402;48.178;11.566;2023-07-31T00:24:05;4.0;;;1.4;;
26824;SDS011;14402;48.178;11.566;2023-07-31T00:24:35;4.9;;;1.5;;
26824;SDS011;14402;48.178;11.566;2023-07-31T00:25:05;4.9;;;1.5;;
26824;SDS011;14402;48.178;11.566;2023-07-31T00:25:35;4.9;;;1.5;;
26824;SDS011;14402;48.178;11.566;2023-07-31T00:26:05;3.6;;;1.4;;
26824;SDS011;14402;48.178;11.566;2023-07-31T00:26:35;2.2;;;1.2;;
26824;SDS011;14402;48.178;11.566;2023-07-31T00:27:06;2.2;;;1.2;;
26824;SDS011;14402;48.178;11.566;2023-07-31T00:27:36;2.2;;;1.2;;
26824;SDS011;14402;48.178;11.566;2023-07-31T00:28:06;2.6;;;1.2;;
26824;SDS011;14402;48.178;11.566;2023-07-31T00:28:36;3.0;;;1.1;;
26824;SDS011;14402;48.178;11.566;2023-07-31T00:29:06;3.0;;;1.1;;
26824;SDS011;14402;48.178;11.566;2023-07-31T00:29:36;3.0;;;1.1;;
26824;SDS011;14402;48.178;11.566;2023-07-31T00:30:06;3.2;;;1.2;;
26824;SDS011;14402;48.178;11.566;2023-07-31T00:30:36;3.5;;;1.3;;
26824;SDS011;14402;48.178;11.566;2023-07-31T00:31:06;3.5;;;1.3;;
26824;SDS011;14402;48.178;11.566;2023-07-31T00:31:36;3.5;;;1.3;;
26824;SDS011;14402;48.178;11.566;2023-07-31T00:32:06;3.0;;;1.1;;
26824;SDS011;14402;48.178;11.566;2023-07-31T00:32:36;2.4;;;1.0;;
26824;SDS011;14402;48.178;11.566;2023-07-31T00:33:06;2.4;;;1.0;;
26824;SDS011;14402;48.178;11.566;2023-07-31T00:33:37;2.4;;;1.0;;
26824;SDS011;14402;48.178;11.566;2023-07-31T00:34:06;2.2;;;1.0;;
26824;SDS011;14402;48.178;11.566;2023-07-31T00:34:37;2.1;;;1.1;;
26824;SDS011;14402;48.178;11.566;2023-07-31T00:35:07;2.1;;;1.1;;
26824;SDS011;14402;48.178;11.566;2023-07-31T00:35:37;2.1;;;1.1;;
26824;SDS011;14402;48.178;11.566;2023-07-31T00:36:07;2.2;;;1.0;;
26824;SDS011;14402;48.178;11.566;2023-07-31T00:36:37;2.3;;;1.0;;
26824;SDS011;14402;48.178;11.566;2023-07-31T00:37:07;2.3;;;1.0;;
26824;SDS011;14402;48.178;11.566;2023-07-31T00:37:37;2.3;;;1.0;;
26824;SDS011;14402;48.178;11.566;2023-07-31T00:38:07;2.2;;;1.0;;
26824;SDS011;14402;48.178;11.566;2023-07-31T00:38:37;2.2;;;1.0;;
26824;SDS011;14402;48.178;11.566;2023-07-31T00:39:07;2.2;;;1.0;;
26824;SDS011;14402;48.178;11.566;2023-07-31T00:39:37;2.2;;;1.0;;
26824;SDS011;14402;48.178;11.566;2023-07-31T00:40:08;3.6;;;1.2;;
26824;SDS011;14402;48.178;11.566;2023-07-31T00:40:38;4.9;;;1.4;;
26824;SDS011;14402;48.178;11.566;2023-07-31T00:41:08;4.9;;;1.4;;
26824;SDS011;14402;48.178;11.566;2023-07-31T00:41:38;4.9;;;1.4;;
26824;SDS011;14402;48.178;11.566;2023-07-31T00:42:08;3.7;;;1.3;;
26824;SDS011;14402;48.178;11.566;2023-07-31T00:42:38;2.5;;;1.3;;
26824;SDS011;14402;48.178;11.566;2023-07-31T00:43:08;2.5;;;1.3;;
26824;SDS011;14402;48.178;11.566;2023-07-31T00:43:38;2.5;;;1.3;;
26824;SDS011;14402;48.178;11.566;2023-07-31T00:44:08;2.7;;;1.2;;
26824;SDS011;14402;48.178;11.566;2023-07-31T00:44:38;2.8;;;1.1;;
26824;SDS011;14402;48.178;11.566;2023-07-31T00:45:08;2.8;;;1.1;;
26824;SDS011;14402;48.178;11.566;2023-07-31T00:45:38;2.8;;;1.1;;
26824;SDS011;14402;48.178;11.566;2023-07-31T00:46:08;2.4;;;1.1;;
26824;SDS011;14402;48.178;11.566;2023-07-31T00:46:38;2.1;;;1.1;;
26824;SDS011;14402;48.178;11.566;2023-07-31T00:47:09;2.1;;;1.1;;
26824;SDS011;14402;48.178;11.566;2023-07-31T00:47:39;2.1;;;1.1;;
26824;SDS011;14402;48.178;11.566;2023-07-31T00:48:09;2.8;;;1.2;;
26824;SDS011;14402;48.178;11.566;2023-07-31T00:48:39;3.5;;;1.3;;
26824;SDS011;14402;48.178;11.566;2023-07-31T00:49:09;3.5;;;1.3;;
26824;SDS011;14402;48.178;11.566;2023-07-31T00:49:39;3.5;;;1.3;;
26824;SDS011;14402;48.178;11.566;2023-07-31T00:50:09;2.7;;;1.2;;
26824;SDS011;14402;48.178;11.566;2023-07-31T00:50:39;1.9;;;1.1;;
26824;SDS011;14402;48.178;11.566;2023-07-31T00:51:09;1.9;;;1.1;;
26824;SDS011;14402;48.178;11.566;2023-07-31T00:51:39;1.9;;;1.1;;
26824;SDS011;14402;48.178;11.566;2023-07-31T00:52:09;2.0;;;1.1;;
26824;SDS011;14402;48.178;11.566;2023-07-31T00:52:39;2.1;;;1.1;;
26824;SDS011;14402;48.178;11.566;2023-07-31T00:53:09;2.1;;;1.1;;
26824;SDS011;14402;48.178;11.566;2023-07-31T00:53:40;2.1;;;1.1;;
26824;SDS011;14402;48.178;11.566;2023-07-31T00:54:10;2.2;;;1.2;;
26824;SDS011;14402;48.178;11.566;2023-07-31T00:54:40;2.4;;;1.4;;
26824;SDS011;14402;48.178;11.566;2023-07-31T00:55:10;2.4;;;1.4;;
26824;SDS011;14402;48.178;11.566;2023-07-31T00:55:40;2.4;;;1.4;;
26824;SDS011;14402;48.178;11.566;2023-07-31T00:56:10;2.6;;;1.3;;
26824;SDS011;14402;48.178;11.566;2023-07-31T00:56:40;2.8;;;1.3;;
26824;SDS011;14402;48.178;11.566;2023-07-31T00:57:10;2.8;;;1.3;;
26824;SDS011;14402;48.178;11.566;2023-07-31T00:57:40;2.8;;;1.3;;
26824;SDS011;14402;48.178;11.566;2023-07-31T00:58:10;2.6;;;1.2;;
26824;SDS011;14402;48.178;11.566;2023-07-31T00:58:40;2.4;;;1.1;;
26824;SDS011;14402;48.178;11.566;2023-07-31T00:59:10;2.4;;;1.1;;
26824;SDS011;14402;48.178;11.566;2023-07-31T00:59:40;2.4;;;1.1;;
26824;SDS011;14402;48.178;11.566;2023-07-31T01:00:11;3.3;;;1.3;;
26824;SDS011;14402;48.178;11.566;2023-07-31T01:00:40;4.2;;;1.5;;
26824;SDS011;14402;48.178;11.566;2023-07-31T01:01:11;4.2;;;1.5;;
26824;SDS011;14402;48.178;11.566;2023-07-31T01:01:41;4.2;;;1.5;;
26824;SDS011;14402;48.178;11.566;2023-07-31T01:02:11;3.3;;;1.4;;
26824;SDS011;14402;48.178;11.566;2023-07-31T01:02:41;2.4;;;1.3;;
26824;SDS011;14402;48.178;11.566;2023-07-31T01:03:11;2.4;;;1.3;;
26824;SDS011;14402;48.178;11.566;2023-07-31T01:03:41;2.4;;;1.3;;
26824;SDS011;14402;48.178;11.566;2023-07-31T01:04:11;2.7;;;1.3;;
26824;SDS011;14402;48.178;11.566;2023-07-31T01:04:42;3.0;;;1.3;;
26824;SDS011;14402;48.178;11.566;2023-07-31T01:05:11;3.0;;;1.3;;
26824;SDS011;14402;48.178;11.566;2023-07-31T01:05:43;3.0;;;1.3;;
26824;SDS011;14402;48.178;11.566;2023-07-31T01:06:14;2.9;;;1.2;;
26824;SDS011;14402;48.178;11.566;2023-07-31T01:06:44;2.8;;;1.2;;
26824;SDS011;14402;48.178;11.566;2023-07-31T01:07:13;2.8;;;1.2;;
26824;SDS011;14402;48.178;11.566;2023-07-31T01:07:42;2.8;;;1.2;;
26824;SDS011;14402;48.178;11.566;2023-07-31T01:08:12;3.2;;;1.2;;
26824;SDS011;14402;48.178;11.566;2023-07-31T01:08:42;3.5;;;1.3;;
26824;SDS011;14402;48.178;11.566;2023-07-31T01:09:15;3.5;;;1.3;;
26824;SDS011;14402;48.178;11.566;2023-07-31T01:09:43;3.5;;;1.3;;
26824;SDS011;14402;48.178;11.566;2023-07-31T01:10:15;3.0;;;1.2;;
26824;SDS011;14402;48.178;11.566;2023-07-31T01:10:45;2.4;;;1.2;;
26824;SDS011;14402;48.178;11.566;2023-07-31T01:11:14;2.4;;;1.2;;
26824;SDS011;14402;48.178;11.566;2023-07-31T01:11:43;2.4;;;1.2;;
26824;SDS011;14402;48.178;11.566;2023-07-31T01:12:13;1.9;;;1.1;;
26824;SDS011;14402;48.178;11.566;2023-07-31T01:12:42;1.3;;;1.0;;
26824;SDS011;14402;48.178;11.566;2023-07-31T01:13:12;1.3;;;1.0;;
26824;SDS011;14402;48.178;11.566;2023-07-31T01:13:42;1.3;;;1.0;;
26824;SDS011;14402;48.178;11.566;2023-07-31T01:14:12;2.0;;;1.1;;
26824;SDS011;14402;48.178;11.566;2023-07-31T01:14:50;2.7;;;1.2;;
26824;SDS011;14402;48.178;11.566;2023-07-31T01:15:13;2.7;;;1.2;;
26824;SDS011;14402;48.178;11.566;2023-07-31T01:15:43;2.7;;;1.2;;
26824;SDS011;14402;48.178;11.566;2023-07-31T01:16:13;2.5;;;1.2;;
26824;SDS011;14402;48.178;11.566;2023-07-31T01:16:43;2.2;;;1.3;;
26824;SDS011;14402;48.178;11.566;2023-07-31T01:17:14;2.2;;;1.3;;
26824;SDS011;14402;48.178;11.566;2023-07-31T01:17:43;2.2;;;1.3;;
26824;SDS011;14402;48.178;11.566;2023-07-31T01:18:13;3.4;;;1.4;;
26824;SDS011;14402;48.178;11.566;2023-07-31T01:18:43;4.6;;;1.5;;
26824;SDS011;14402;48.178;11.566;2023-07-31T01:19:14;4.6;;;1.5;;
26824;SDS011;14402;48.178;11.566;2023-07-31T01:19:43;4.6;;;1.5;;
26824;SDS011;14402;48.178;11.566;2023-07-31T01:20:15;3.5;;;1.4;;
26824;SDS011;14402;48.178;11.566;2023-07-31T01:20:43;2.5;;;1.3;;
26824;SDS011;14402;48.178;11.566;2023-07-31T01:21:18;2.5;;;1.3;;
26824;SDS011;14402;48.178;11.566;2023-07-31T01:21:57;2.5;;;1.3;;
26824;SDS011;14402;48.178;11.566;2023-07-31T01:22:16;2.8;;;1.3;;
26824;SDS011;14402;48.178;11.566;2023-07-31T01:22:49;3.0;;;1.3;;
26824;SDS011;14402;48.178;11.566;2023-07-31T01:23:35;3.0;;;1.3;;
26824;SDS011;14402;48.178;11.566;2023-07-31T01:23:50;3.0;;;1.3;;
26824;SDS011;14402;48.178;11.566;2023-07-31T01:24:19;2.6;;;1.2;;
26824;SDS011;14402;48.178;11.566;2023-07-31T01:24:49;2.2;;;1.2;;
26824;SDS011;14402;48.178;11.566;2023-07-31T01:25:16;2.2;;;1.2;;
26824;SDS011;14402;48.178;11.566;2023-07-31T01:25:48;2.2;;;1.2;;
26824;SDS011;14402;48.178;11.566;2023-07-31T01:26:15;2.9;;;1.2;;
26824;SDS011;14402;48.178;11.566;2023-07-31T01:26:45;3.6;;;1.2;;
26824;SDS011;14402;48.178;11.566;2023-07-31T01:27:15;3.6;;;1.2;;
26824;SDS011;14402;48.178;11.566;2023-07-31T01:27:47;3.6;;;1.2;;
26824;SDS011;14402;48.178;11.566;2023-07-31T01:28:16;3.2;;;1.2;;
26824;SDS011;14402;48.178;11.566;2023-07-31T01:28:46;2.7;;;1.2;;
26824;SDS011;14402;48.178;11.566;2023-07-31T01:29:17;2.7;;;1.2;;
26824;SDS011;14402;48.178;11.566;2023-07-31T01:29:46;2.7;;;1.2;;
26824;SDS011;14402;48.178;11.566;2023-07-31T01:30:15;2.7;;;1.2;;
26824;SDS011;14402;48.178;11.566;2023-07-31T01:30:47;2.7;;;1.1;;
26824;SDS011;14402;48.178;11.566;2023-07-31T01:31:16;2.7;;;1.1;;
26824;SDS011;14402;48.178;11.566;2023-07-31T01:31:46;2.7;;;1.1;;
26824;SDS011;14402;48.178;11.566;2023-07-31T01:32:16;3.3;;;1.2;;
26824;SDS011;14402;48.178;11.566;2023-07-31T01:32:46;4.0;;;1.4;;
26824;SDS011;14402;48.178;11.566;2023-07-31T01:33:15;4.0;;;1.4;;
26824;SDS011;14402;48.178;11.566;2023-07-31T01:33:45;4.0;;;1.4;;
26824;SDS011;14402;48.178;11.566;2023-07-31T01:34:15;3.4;;;1.2;;
26824;SDS011;14402;48.178;11.566;2023-07-31T01:34:45;2.8;;;1.1;;
26824;SDS011;14402;48.178;11.566;2023-07-31T01:35:16;2.8;;;1.1;;
26824;SDS011;14402;48.178;11.566;2023-07-31T01:35:46;2.8;;;1.1;;
26824;SDS011;14402;48.178;11.566;2023-07-31T01:36:16;2.7;;;1.2;;
26824;SDS011;14402;48.178;11.566;2023-07-31T01:36:46;2.6;;;1.2;;
26824;SDS011;14402;48.178;11.566;2023-07-31T01:37:16;2.6;;;1.2;;
26824;SDS011;14402;48.178;11.566;2023-07-31T01:37:46;2.6;;;1.2;;
26824;SDS011;14402;48.178;11.566;2023-07-31T01:38:19;2.2;;;1.1;;
26824;SDS011;14402;48.178;11.566;2023-07-31T01:38:46;1.8;;;1.0;;
26824;SDS011;14402;48.178;11.566;2023-07-31T01:39:16;1.8;;;1.0;;
26824;SDS011;14402;48.178;11.566;2023-07-31T01:39:46;1.8;;;1.0;;
26824;SDS011;14402;48.178;11.566;2023-07-31T01:40:16;2.0;;;1.0;;
26824;SDS011;14402;48.178;11.566;2023-07-31T01:40:46;2.2;;;1.1;;
26824;SDS011;14402;48.178;11.566;2023-07-31T01:41:17;2.2;;;1.1;;
26824;SDS011;14402;48.178;11.566;2023-07-31T01:41:47;2.2;;;1.1;;
26824;SDS011;14402;48.178;11.566;2023-07-31T01:42:16;2.1;;;1.1;;
26824;SDS011;14402;48.178;11.566;2023-07-31T01:42:47;2.0;;;1.1;;
26824;SDS011;14402;48.178;11.566;2023-07-31T01:43:17;2.0;;;1.1;;
26824;SDS011;14402;48.178;11.566;2023-07-31T01:43:47;2.0;;;1.1;;
26824;SDS011;14402;48.178;11.566;2023-07-31T01:44:17;2.8;;;1.2;;
26824;SDS011;14402;48.178;11.566;2023-07-31T01:44:47;3.6;;;1.3;;
26824;SDS011;14402;48.178;11.566;2023-07-31T01:45:17;3.6;;;1.3;;
26824;SDS011;14402;48.178;11.566;2023-07-31T01:45:47;3.6;;;1.3;;
26824;SDS011;14402;48.178;11.566;2023-07-31T01:46:17;5.2;;;1.5;;
26824;SDS011;14402;48.178;11.566;2023-07-31T01:46:47;6.9;;;1.6;;
26824;SDS011;14402;48.178;11.566;2023-07-31T01:47:17;6.9;;;1.6;;
26824;SDS011;14402;48.178;11.566;2023-07-31T01:47:47;6.9;;;1.6;;
26824;SDS011;14402;48.178;11.566;2023-07-31T01:48:17;5.3;;;1.3;;
26824;SDS011;14402;48.178;11.566;2023-07-31T01:48:48;3.8;;;1.0;;
26824;SDS011;14402;48.178;11.566;2023-07-31T01:49:18;3.8;;;1.0;;
26824;SDS011;14402;48.178;11.566;2023-07-31T01:49:48;3.8;;;1.0;;
26824;SDS011;14402;48.178;11.566;2023-07-31T01:50:18;4.2;;;1.0;;
26824;SDS011;14402;48.178;11.566;2023-07-31T01:50:48;4.5;;;1.1;;
26824;SDS011;14402;48.178;11.566;2023-07-31T01:51:18;4.5;;;1.1;;
26824;SDS011;14402;48.178;11.566;2023-07-31T01:51:48;4.5;;;1.1;;
26824;SDS011;14402;48.178;11.566;2023-07-31T01:52:18;3.3;;;1.1;;
26824;SDS011;14402;48.178;11.566;2023-07-31T01:52:48;2.2;;;1.1;;
26824;SDS011;14402;48.178;11.566;2023-07-31T01:53:18;2.2;;;1.1;;
26824;SDS011;14402;48.178;11.566;2023-07-31T01:53:48;2.2;;;1.1;;
26824;SDS011;14402;48.178;11.566;2023-07-31T01:54:18;2.2;;;1.2;;
26824;SDS011;14402;48.178;11.566;2023-07-31T01:54:48;2.2;;;1.3;;
26824;SDS011;14402;48.178;11.566;2023-07-31T01:55:18;2.2;;;1.3;;
26824;SDS011;14402;48.178;11.566;2023-07-31T01:55:49;2.2;;;1.3;;
26824;SDS011;14402;48.178;11.566;2023-07-31T01:56:19;2.3;;;1.3;;
26824;SDS011;14402;48.178;11.566;2023-07-31T01:56:49;2.4;;;1.3;;
26824;SDS011;14402;48.178;11.566;2023-07-31T01:57:19;2.4;;;1.3;;
26824;SDS011;14402;48.178;11.566;2023-07-31T01:57:49;2.4;;;1.3;;
26824;SDS011;14402;48.178;11.566;2023-07-31T01:58:19;2.2;;;1.3;;
26824;SDS011;14402;48.178;11.566;2023-07-31T01:58:49;2.1;;;1.3;;
26824;SDS011;14402;48.178;11.566;2023-07-31T01:59:19;2.1;;;1.3;;
26824;SDS011;14402;48.178;11.566;2023-07-31T01:59:49;2.1;;;1.3;;
26824;SDS011;14402;48.178;11.566;2023-07-31T02:00:19;2.6;;;1.1;;
26824;SDS011;14402;48.178;11.566;2023-07-31T02:00:49;3.1;;;1.0;;
26824;SDS011;14402;48.178;11.566;2023-07-31T02:01:19;3.1;;;1.0;;
26824;SDS011;14402;48.178;11.566;2023-07-31T02:01:49;3.1;;;1.0;;
26824;SDS011;14402;48.178;11.566;2023-07-31T02:02:19;2.8;;;1.0;;
26824;SDS011;14402;48.178;11.566;2023-07-31T02:02:49;2.6;;;1.0;;
26824;SDS011;14402;48.178;11.566;2023-07-31T02:03:20;2.6;;;1.0;;
26824;SDS011;14402;48.178;11.566;2023-07-31T02:03:50;2.6;;;1.0;;
26824;SDS011;14402;48.178;11.566;2023-07-31T02:04:20;2.5;;;1.0;;
26824;SDS011;14402;48.178;11.566;2023-07-31T02:04:50;2.5;;;1.1;;
26824;SDS011;14402;48.178;11.566;2023-07-31T02:05:20;2.5;;;1.1;;
26824;SDS011;14402;48.178;11.566;2023-07-31T02:05:50;2.5;;;1.1;;
26824;SDS011;14402;48.178;11.566;2023-07-31T02:06:20;2.2;;;1.2;;
26824;SDS011;14402;48.178;11.566;2023-07-31T02:06:50;1.9;;;1.2;;
26824;SDS011;14402;48.178;11.566;2023-07-31T02:07:20;1.9;;;1.2;;
26824;SDS011;14402;48.178;11.566;2023-07-31T02:07:50;1.9;;;1.2;;
26824;SDS011;14402;48.178;11.566;2023-07-31T02:08:20;2.2;;;1.1;;
26824;SDS011;14402;48.178;11.566;2023-07-31T02:08:50;2.6;;;1.0;;
26824;SDS011;14402;48.178;11.566;2023-07-31T02:09:20;2.6;;;1.0;;
26824;SDS011;14402;48.178;11.566;2023-07-31T02:09:51;2.6;;;1.0;;
26824;SDS011;14402;48.178;11.566;2023-07-31T02:10:21;2.4;;;1.1;;
26824;SDS011;14402;48.178;11.566;2023-07-31T02:10:51;2.3;;;1.3;;
26824;SDS011;14402;48.178;11.566;2023-07-31T02:11:21;2.3;;;1.3;;
26824;SDS011;14402;48.178;11.566;2023-07-31T02:11:51;2.3;;;1.3;;
26824;SDS011;14402;48.178;11.566;2023-07-31T02:12:21;3.5;;;1.1;;
26824;SDS011;14402;48.178;11.566;2023-07-31T02:12:51;4.7;;;1.0;;
26824;SDS011;14402;48.178;11.566;2023-07-31T02:13:21;4.7;;;1.0;;
26824;SDS011;14402;48.178;11.566;2023-07-31T02:13:51;4.7;;;1.0;;
26824;SDS011;14402;48.178;11.566;2023-07-31T02:14:21;3.4;;;1.1;;
26824;SDS011;14402;48.178;11.566;2023-07-31T02:14:51;2.2;;;1.2;;
26824;SDS011;14402;48.178;11.566;2023-07-31T02:15:21;2.2;;;1.2;;
26824;SDS011;14402;48.178;11.566;2023-07-31T02:15:51;2.2;;;1.2;;
26824;SDS011;14402;48.178;11.566;2023-07-31T02:16:21;3.1;;;1.2;;
26824;SDS011;14402;48.178;11.566;2023-07-31T02:16:51;4.0;;;1.2;;
26824;SDS011;14402;48.178;11.566;2023-07-31T02:17:23;4.0;;;1.2;;
26824;SDS011;14402;48.178;11.566;2023-07-31T02:17:52;4.0;;;1.2;;
26824;SDS011;14402;48.178;11.566;2023-07-31T02:18:22;3.0;;;1.2;;
26824;SDS011;14402;48.178;11.566;2023-07-31T02:18:52;1.9;;;1.3;;
26824;SDS011;14402;48.178;11.566;2023-07-31T02:19:22;1.9;;;1.3;;
26824;SDS011;14402;48.178;11.566;2023-07-31T02:19:52;1.9;;;1.3;;
26824;SDS011;14402;48.178;11.566;2023-07-31T02:20:22;2.2;;;1.2;;
26824;SDS011;14402;48.178;11.566;2023-07-31T02:20:52;2.5;;;1.1;;
26824;SDS011;14402;48.178;11.566;2023-07-31T02:21:22;2.5;;;1.1;;
26824;SDS011;14402;48.178;11.566;2023-07-31T02:21:52;2.5;;;1.1;;
26824;SDS011;14402;48.178;11.566;2023-07-31T02:22:22;2.2;;;1.1;;
26824;SDS011;14402;48.178;11.566;2023-07-31T02:22:52;2.0;;;1.1;;
26824;SDS011;14402;48.178;11.566;2023-07-31T02:23:22;2.0;;;1.1;;
26824;SDS011;14402;48.178;11.566;2023-07-31T02:23:53;2.0;;;1.1;;
26824;SDS011;14402;48.178;11.566;2023-07-31T02:24:23;2.1;;;1.1;;
26824;SDS011;14402;48.178;11.566;2023-07-31T02:24:53;2.2;;;1.1;;
26824;SDS011;14402;48.178;11.566;2023-07-31T02:25:23;2.2;;;1.1;;
26824;SDS011;14402;48.178;11.566;2023-07-31T02:25:53;2.2;;;1.1;;
26824;SDS011;14402;48.178;11.566;2023-07-31T02:26:23;2.1;;;1.2;;
26824;SDS011;14402;48.178;11.566;2023-07-31T02:26:53;2.0;;;1.2;;
26824;SDS011;14402;48.178;11.566;2023-07-31T02:27:23;2.0;;;1.2;;
26824;SDS011;14402;48.178;11.566;2023-07-31T02:27:53;2.0;;;1.2;;
26824;SDS011;14402;48.178;11.566;2023-07-31T02:28:23;2.1;;;1.2;;
26824;SDS011;14402;48.178;11.566;2023-07-31T02:28:53;2.2;;;1.1;;
26824;SDS011;14402;48.178;11.566;2023-07-31T02:29:23;2.2;;;1.1;;
26824;SDS011;14402;48.178;11.566;2023-07-31T02:29:53;2.2;;;1.1;;
26824;SDS011;14402;48.178;11.566;2023-07-31T02:30:23;2.8;;;1.2;;
26824;SDS011;14402;48.178;11.566;2023-07-31T02:30:53;3.5;;;1.3;;
26824;SDS011;14402;48.178;11.566;2023-07-31T02:31:24;3.5;;;1.3;;
26824;SDS011;14402;48.178;11.566;2023-07-31T02:31:54;3.5;;;1.3;;
26824;SDS011;14402;48.178;11.566;2023-07-31T02:32:24;2.8;;;1.1;;
26824;SDS011;14402;48.178;11.566;2023-07-31T02:32:54;2.0;;;1.0;;
26824;SDS011;14402;48.178;11.566;2023-07-31T02:33:24;2.0;;;1.0;;
26824;SDS011;14402;48.178;11.566;2023-07-31T02:33:54;2.0;;;1.0;;
26824;SDS011;14402;48.178;11.566;2023-07-31T02:34:24;1.9;;;1.0;;
26824;SDS011;14402;48.178;11.566;2023-07-31T02:34:54;1.7;;;1.1;;
26824;SDS011;14402;48.178;11.566;2023-07-31T02:35:24;1.7;;;1.1;;
26824;SDS011;14402;48.178;11.566;2023-07-31T02:35:54;1.7;;;1.1;;
26824;SDS011;14402;48.178;11.566;2023-07-31T02:36:24;2.8;;;1.1;;
26824;SDS011;14402;48.178;11.566;2023-07-31T02:36:54;3.8;;;1.1;;
26824;SDS011;14402;48.178;11.566;2023-07-31T02:37:25;3.8;;;1.1;;
26824;SDS011;14402;48.178;11.566;2023-07-31T02:37:54;3.8;;;1.1;;
26824;SDS011;14402;48.178;11.566;2023-07-31T02:38:25;3.4;;;1.2;;
26824;SDS011;14402;48.178;11.566;2023-07-31T02:38:55;3.1;;;1.2;;
26824;SDS011;14402;48.178;11.566;2023-07-31T02:39:25;3.1;;;1.2;;
26824;SDS011;14402;48.178;11.566;2023-07-31T02:39:55;3.1;;;1.2;;
26824;SDS011;14402;48.178;11.566;2023-07-31T02:40:25;2.4;;;1.2;;
26824;SDS011;14402;48.178;11.566;2023-07-31T02:40:55;1.7;;;1.1;;
26824;SDS011;14402;48.178;11.566;2023-07-31T02:41:25;1.7;;;1.1;;
26824;SDS011;14402;48.178;11.566;2023-07-31T02:41:55;1.7;;;1.1;;
26824;SDS011;14402;48.178;11.566;2023-07-31T02:42:25;2.2;;;1.2;;
26824;SDS011;14402;48.178;11.566;2023-07-31T02:42:55;2.6;;;1.4;;
26824;SDS011;14402;48.178;11.566;2023-07-31T02:43:25;2.6;;;1.4;;
26824;SDS011;14402;48.178;11.566;2023-07-31T02:43:55;2.6;;;1.4;;
26824;SDS011;14402;48.178;11.566;2023-07-31T02:44:25;2.7;;;1.2;;
26824;SDS011;14402;48.178;11.566;2023-07-31T02:44:55;2.7;;;1.1;;
26824;SDS011;14402;48.178;11.566;2023-07-31T02:45:26;2.7;;;1.1;;
26824;SDS011;14402;48.178;11.566;2023-07-31T02:45:56;2.7;;;1.1;;
26824;SDS011;14402;48.178;11.566;2023-07-31T02:46:26;2.6;;;1.1;;
26824;SDS011;14402;48.178;11.566;2023-07-31T02:46:56;2.5;;;1.1;;
26824;SDS011;14402;48.178;11.566;2023-07-31T02:47:26;2.5;;;1.1;;
26824;SDS011;14402;48.178;11.566;2023-07-31T02:47:56;2.5;;;1.1;;
26824;SDS011;14402;48.178;11.566;2023-07-31T02:48:26;2.3;;;1.2;;
26824;SDS011;14402;48.178;11.566;2023-07-31T02:48:56;2.2;;;1.2;;
26824;SDS011;14402;48.178;11.566;2023-07-31T02:49:26;2.2;;;1.2;;
26824;SDS011;14402;48.178;11.566;2023-07-31T02:49:56;2.2;;;1.2;;
26824;SDS011;14402;48.178;11.566;2023-07-31T02:50:26;2.2;;;1.1;;
26824;SDS011;14402;48.178;11.566;2023-07-31T02:50:56;2.1;;;1.0;;
26824;SDS011;14402;48.178;11.566;2023-07-31T02:51:26;2.1;;;1.0;;
26824;SDS011;14402;48.178;11.566;2023-07-31T02:51:57;2.1;;;1.0;;
26824;SDS011;14402;48.178;11.566;2023-07-31T02:52:27;1.8;;;1.0;;
26824;SDS011;14402;48.178;11.566;2023-07-31T02:52:57;1.6;;;1.0;;
26824;SDS011;14402;48.178;11.566;2023-07-31T02:53:27;1.6;;;1.0;;
26824;SDS011;14402;48.178;11.566;2023-07-31T02:53:57;1.6;;;1.0;;
26824;SDS011;14402;48.178;11.566;2023-07-31T02:54:27;2.2;;;1.1;;
26824;SDS011;14402;48.178;11.566;2023-07-31T02:54:57;2.9;;;1.3;;
26824;SDS011;14402;48.178;11.566;2023-07-31T02:55:27;2.9;;;1.3;;
26824;SDS011;14402;48.178;11.566;2023-07-31T02:55:57;2.9;;;1.3;;
26824;SDS011;14402;48.178;11.566;2023-07-31T02:56:27;2.8;;;1.2;;
26824;SDS011;14402;48.178;11.566;2023-07-31T02:56:57;2.7;;;1.2;;
26824;SDS011;14402;48.178;11.566;2023-07-31T02:57:27;2.7;;;1.2;;
26824;SDS011;14402;48.178;11.566;2023-07-31T02:57:57;2.7;;;1.2;;
26824;SDS011;14402;48.178;11.566;2023-07-31T02:58:27;3.4;;;1.2;;
26824;SDS011;14402;48.178;11.566;2023-07-31T02:58:58;4.2;;;1.2;;
26824;SDS011;14402;48.178;11.566;2023-07-31T02:59:28;4.2;;;1.2;;
26824;SDS011;14402;48.178;11.566;2023-07-31T02:59:58;4.2;;;1.2;;
26824;SDS011;14402;48.178;11.566;2023-07-31T03:00:28;4.7;;;1.9;;
26824;SDS011;14402;48.178;11.566;2023-07-31T03:00:58;5.2;;;2.6;;
26824;SDS011;14402;48.178;11.566;2023-07-31T03:01:28;5.2;;;2.6;;
26824;SDS011;14402;48.178;11.566;2023-07-31T03:01:58;5.2;;;2.6;;
26824;SDS011;14402;48.178;11.566;2023-07-31T03:02:28;4.9;;;2.2;;
26824;SDS011;14402;48.178;11.566;2023-07-31T03:02:58;4.6;;;1.8;;
26824;SDS011;14402;48.178;11.566;2023-07-31T03:03:28;4.6;;;1.8;;
26824;SDS011;14402;48.178;11.566;2023-07-31T03:03:58;4.6;;;1.8;;